KMRY/MRY METAR and TAF weather

Enter ICAO airport designator
Station Type Date Time Source
KMRY METAR 2022/06/25 21:54 UTC NOAA

KMRY 252154Z 35009KT 9SM FEW002 19/12 A2997 RMK AO2 SLP160 T01940117


Station Type Date Time Source
KMRY Decoded METAR 2022/06/25 21:54 UTC NOAA

MONTEREY PENINSULA AIRPORT, CA, United States (KMRY) 36-35N 121-51W 66M
Jun 25, 2022 - 05:54 PM EDT / 2022.06.25 2154 UTC
Wind: from the N (350 degrees) at 10 MPH (9 KT):0
Visibility: 9 mile(s):0
Sky conditions: mostly clear
Temperature: 66.9 F (19.4 C)
Dew Point: 53.1 F (11.7 C)
Relative Humidity: 61%
Pressure (altimeter): 29.97 in. Hg (1014 hPa)
ob: KMRY 252154Z 35009KT 9SM FEW002 19/12 A2997 RMK AO2 SLP160 T01940117
cycle: 22

Station Type Date Time Source
KMRY TAF 2022/06/25 21:36 UTC NOAA

TAF
AMD KMRY 252034Z 2521/2618 34009KT P6SM SKC
FM260230 31006KT P6SM FEW005
FM260400 VRB05KT 4SM BR BKN003
FM260500 VRB03KT 1SM BR OVC002
FM261530 VRB04KT 6SM BR SCT003
FM261630 VRB05KT P6SM FEW005

Example: see airport list